East Midlands area, Mode-S flight log (local time) Last Update 16-Oct-18 06:30
Flights below 1500ft From 16-Oct-18 05:52
Weather - EGNX 160520Z 14005KT 1100 R27/P1500 BR PRFG SCT002 BKN012 10/10 Q1014
     Min Alt<---Altitude--->On Ground 
Mode SCallsignRegType Time (date)MinFirstLastFirstLastSquawk
4CA8AEFP01361EI-STNB73406:29 (16)3003002,300Y 6375
406AE8TOM7BTG-TAWSB73806:26 (16)350350FL78Y 5230
4CAC99RYR76VQEI-GDVB73806:26 (16)000YY1143
401E92REV72AG-EGLTC31006:06 (16)225225FL100  7755
4AB42ESWN423SE-MANATP06:03 (16)300300FL153Y 7750
407051REV71AG-RVLZC31006:00 (16)325325FL100  1403
4CACBATAY012GEI-STOB73405:58 (16)300300FL195Y 5450
4AB42DSWN019PSE-MAMATP05:54 (16)3001,450300 Y7721
4AB429SWN522SE-MAIATP05:53 (16)1,1001,1001,100